Time;durP1;ratioP1;P1;durP2;ratioP2;P2;SDS_P1;SDS_P2;PMS_P1;PMS_P2;Temp;Humidity;BMP_temperature;BMP_pressure;BME280_temperature;BME280_humidity;BME280_pressure;Samples;Min_cycle;Max_cycle;Signal;HPM_P1;HPM_P2
2022/03/10 00:01:20;;;;;;;27.80;17.38;;;;;;;1.81;65.58;102413.25;5019401;28;20079;-70
2022/03/10 00:03:46;;;;;;;26.95;17.20;;;;;;;1.79;65.65;102416.69;5019772;28;20160;-69
2022/03/10 00:06:11;;;;;;;26.92;16.85;;;;;;;1.75;65.63;102414.00;5019125;28;20095;-68
2022/03/10 00:08:37;;;;;;;25.55;16.40;;;;;;;1.74;65.75;102414.00;5017290;28;20116;-68
2022/03/10 00:11:02;;;;;;;25.27;16.45;;;;;;;1.70;65.92;102420.88;5019660;28;20265;-69
2022/03/10 00:13:30;;;;;;;25.67;16.50;;;;;;;1.68;66.25;102422.59;5009306;28;20033;-69
2022/03/10 00:15:59;;;;;;;24.95;15.15;;;;;;;1.65;65.96;102432.13;5019993;28;20025;-68
2022/03/10 00:18:25;;;;;;;28.30;17.00;;;;;;;1.62;65.91;102422.50;5017993;28;20024;-68
2022/03/10 00:20:51;;;;;;;28.25;17.98;;;;;;;1.59;66.18;102430.28;5018616;28;20481;-68
2022/03/10 00:23:17;;;;;;;27.27;17.35;;;;;;;1.54;66.38;102425.00;5017057;28;20515;-68
2022/03/10 00:25:42;;;;;;;27.08;15.68;;;;;;;1.51;66.25;102421.44;5018130;28;20116;-67
2022/03/10 00:28:08;;;;;;;27.20;16.88;;;;;;;1.47;66.52;102426.59;5017816;28;20072;-68
2022/03/10 00:30:33;;;;;;;25.67;16.80;;;;;;;1.44;66.65;102423.06;5020007;28;20387;-68
2022/03/10 00:32:59;;;;;;;27.25;16.88;;;;;;;1.41;66.76;102418.66;5019802;28;20655;-67
2022/03/10 00:35:25;;;;;;;26.65;16.73;;;;;;;1.40;66.93;102423.84;5019796;28;20155;-67
2022/03/10 00:37:52;;;;;;;27.67;16.83;;;;;;;1.38;66.85;102421.22;5019068;28;20131;-69
2022/03/10 00:40:19;;;;;;;26.98;17.25;;;;;;;1.37;67.16;102416.84;5019354;28;20034;-69
2022/03/10 00:42:45;;;;;;;25.88;16.40;;;;;;;1.35;67.19;102416.81;5019474;28;20087;-68
2022/03/10 00:45:12;;;;;;;28.88;17.85;;;;;;;1.35;67.16;102418.53;5019587;28;20059;-68
2022/03/10 00:47:38;;;;;;;26.20;17.60;;;;;;;1.33;67.02;102421.16;5017304;28;20495;-69
2022/03/10 00:50:05;;;;;;;30.33;18.00;;;;;;;1.31;67.14;102412.38;5019742;28;20124;-68
2022/03/10 00:52:30;;;;;;;25.45;16.08;;;;;;;1.29;67.37;102414.09;5018856;28;20034;-68
2022/03/10 00:54:56;;;;;;;25.92;16.77;;;;;;;1.27;67.18;102407.97;5017728;28;20053;-69
2022/03/10 00:57:22;;;;;;;26.58;17.42;;;;;;;1.26;67.29;102413.16;5017099;28;20075;-69
2022/03/10 00:59:47;;;;;;;25.52;16.38;;;;;;;1.25;67.62;102408.78;5019113;28;20547;-69
2022/03/10 01:02:13;;;;;;;25.58;16.20;;;;;;;1.21;67.71;102413.94;5020429;28;20048;-69
2022/03/10 01:04:38;;;;;;;27.67;16.88;;;;;;;1.19;67.31;102409.53;5016626;28;20029;-68
2022/03/10 01:07:04;;;;;;;24.13;15.90;;;;;;;1.17;67.55;102404.31;5019349;28;20037;-68
2022/03/10 01:09:29;;;;;;;25.98;16.63;;;;;;;1.13;67.73;102402.50;5017647;28;20548;-68
2022/03/10 01:11:55;;;;;;;25.05;15.25;;;;;;;1.11;67.73;102404.19;5019725;28;20535;-69
2022/03/10 01:14:20;;;;;;;26.10;16.02;;;;;;;1.09;67.62;102403.25;5018877;28;20040;-68
2022/03/10 01:16:46;;;;;;;27.30;16.10;;;;;;;1.06;67.68;102404.13;5019853;28;20180;-69
2022/03/10 01:19:11;;;;;;;27.17;16.73;;;;;;;1.04;67.62;102413.63;5018453;28;20033;-68
2022/03/10 01:21:37;;;;;;;25.15;15.35;;;;;;;1.03;67.61;102408.41;5018229;28;20072;-69
2022/03/10 01:24:03;;;;;;;23.48;13.98;;;;;;;0.98;67.97;102405.66;5018334;28;20059;-69
2022/03/10 01:26:28;;;;;;;25.13;16.02;;;;;;;0.98;67.93;102404.81;5016607;28;20111;-68
2022/03/10 01:28:54;;;;;;;23.58;15.25;;;;;;;0.96;67.49;102401.31;5018934;28;20025;-67
2022/03/10 01:31:19;;;;;;;24.88;15.52;;;;;;;0.93;67.82;102399.50;5019821;28;20043;-68
2022/03/10 01:33:45;;;;;;;23.98;15.13;;;;;;;0.90;67.59;102400.31;5018607;28;20515;-68
2022/03/10 01:36:10;;;;;;;21.75;14.00;;;;;;;0.87;67.69;102400.25;5019601;28;20179;-67
2022/03/10 01:38:39;;;;;;;21.10;13.77;;;;;;;0.85;67.55;102396.72;5017334;28;20059;-68
2022/03/10 01:41:06;;;;;;;25.27;15.20;;;;;;;0.83;67.73;102392.34;5016311;28;20025;-67
2022/03/10 01:43:31;;;;;;;24.17;15.25;;;;;;;0.80;67.44;102394.03;5015944;28;20034;-67
2022/03/10 01:45:57;;;;;;;23.80;14.85;;;;;;;0.78;67.53;102395.75;5016959;28;20041;-68
2022/03/10 01:48:23;;;;;;;23.75;14.77;;;;;;;0.77;67.72;102395.72;5017795;28;20396;-68
2022/03/10 01:50:49;;;;;;;23.85;15.13;;;;;;;0.76;67.74;102401.78;5017764;28;20591;-69
2022/03/10 01:53:14;;;;;;;24.10;14.55;;;;;;;0.73;67.83;102399.97;5016928;28;20139;-68
2022/03/10 01:55:40;;;;;;;21.20;13.75;;;;;;;0.73;67.59;102396.47;5017799;28;20041;-68
2022/03/10 01:58:06;;;;;;;23.50;14.98;;;;;;;0.72;67.79;102406.03;4999352;28;20033;-68
2022/03/10 02:00:31;;;;;;;22.20;14.60;;;;;;;0.72;67.94;102402.53;5016398;28;20107;-68
2022/03/10 02:02:57;;;;;;;24.42;14.57;;;;;;;0.70;67.86;102399.03;5018186;28;20836;-68
2022/03/10 02:05:22;;;;;;;24.58;15.80;;;;;;;0.69;67.76;102395.53;5017029;28;20117;-68
2022/03/10 02:10:34;;;;;;;23.40;14.57;;;;;;;0.66;68.02;102392.88;5016832;28;20116;-68
2022/03/10 02:12:59;;;;;;;23.63;13.95;;;;;;;0.64;68.23;102395.44;5000573;28;20587;-69
2022/03/10 02:18:11;;;;;;;22.45;14.48;;;;;;;0.63;68.23;102400.63;5001660;28;20336;-68
2022/03/10 02:20:38;;;;;;;24.63;15.60;;;;;;;0.62;68.32;102398.88;5017409;28;21513;-69
2022/03/10 02:23:05;;;;;;;24.92;15.88;;;;;;;0.61;68.69;102397.97;5003014;28;20380;-67
2022/03/10 02:25:30;;;;;;;23.08;15.15;;;;;;;0.62;69.14;102409.28;5018617;28;20499;-67
2022/03/10 02:27:57;;;;;;;23.73;15.18;;;;;;;0.61;68.57;102408.41;5022302;28;20194;-68
2022/03/10 02:30:28;;;;;;;22.65;15.73;;;;;;;0.61;68.77;102407.53;5021697;28;20037;-68
2022/03/10 02:32:53;;;;;;;24.20;14.77;;;;;;;0.60;69.17;102403.19;5020280;28;20076;-68
2022/03/10 02:35:19;;;;;;;25.35;15.65;;;;;;;0.58;68.91;102410.97;5004714;28;20114;-68
2022/03/10 02:37:45;;;;;;;24.13;16.25;;;;;;;0.57;68.87;102404.00;5020508;28;20767;-68
2022/03/10 02:40:11;;;;;;;23.17;14.60;;;;;;;0.53;69.10;102400.44;5002704;28;20567;-68
2022/03/10 02:42:37;;;;;;;24.77;15.05;;;;;;;0.52;68.71;102398.69;5021252;28;20277;-69
2022/03/10 02:45:03;;;;;;;22.90;14.80;;;;;;;0.51;69.14;102401.25;5003376;28;20125;-68
2022/03/10 02:47:29;;;;;;;25.67;15.70;;;;;;;0.49;68.87;102408.16;5021067;28;20423;-68
2022/03/10 02:49:54;;;;;;;22.88;14.95;;;;;;;0.45;68.94;102404.63;5022459;28;20036;-68
2022/03/10 02:52:20;;;;;;;20.90;14.18;;;;;;;0.43;68.63;102401.06;5020523;28;21376;-67
2022/03/10 02:54:46;;;;;;;23.98;14.90;;;;;;;0.42;68.70;102401.06;5019451;28;20659;-68
2022/03/10 02:57:12;;;;;;;25.42;15.77;;;;;;;0.40;68.89;102404.47;5022765;28;20037;-67
2022/03/10 02:59:38;;;;;;;26.23;15.02;;;;;;;0.39;68.84;102407.94;5022358;28;20025;-67
2022/03/10 03:02:04;;;;;;;21.48;14.02;;;;;;;0.40;69.02;102408.84;5018520;28;20045;-67
2022/03/10 03:04:30;;;;;;;24.05;15.35;;;;;;;0.39;68.60;102412.28;5021476;28;20025;-67
2022/03/10 03:06:55;;;;;;;24.10;15.25;;;;;;;0.37;68.95;102412.25;5017874;28;20865;-67
2022/03/10 03:09:21;;;;;;;25.70;15.10;;;;;;;0.37;68.44;102403.53;5018348;28;20099;-67
2022/03/10 03:11:46;;;;;;;25.77;15.98;;;;;;;0.36;68.40;102414.81;5020532;28;20040;-67
2022/03/10 03:14:12;;;;;;;27.92;16.90;;;;;;;0.35;68.39;102411.34;5021351;28;20029;-67
2022/03/10 03:16:38;;;;;;;25.45;15.68;;;;;;;0.33;68.40;102413.00;5021799;28;20173;-68
2022/03/10 03:19:03;;;;;;;24.67;15.93;;;;;;;0.33;68.74;102413.00;5020968;28;20028;-68
2022/03/10 03:21:29;;;;;;;28.55;16.40;;;;;;;0.32;68.38;102411.25;5021832;28;20068;-67
2022/03/10 03:23:56;;;;;;;23.50;14.93;;;;;;;0.32;68.67;102416.47;5020445;28;20109;-67
2022/03/10 03:26:21;;;;;;;25.92;15.75;;;;;;;0.32;68.52;102416.47;5019170;28;20037;-67
2022/03/10 03:28:47;;;;;;;25.33;15.63;;;;;;;0.32;68.50;102415.59;5021061;28;20064;-68
2022/03/10 03:31:12;;;;;;;25.80;16.88;;;;;;;0.32;68.88;102416.47;5020150;28;20018;-67
2022/03/10 03:33:38;;;;;;;26.30;16.05;;;;;;;0.31;68.78;102414.72;5020037;28;20495;-67
2022/03/10 03:36:04;;;;;;;26.23;16.27;;;;;;;0.30;68.42;102415.56;5020070;28;20060;-67
2022/03/10 03:38:30;;;;;;;26.00;16.67;;;;;;;0.30;68.62;102414.66;5019139;28;20143;-66
2022/03/10 03:40:55;;;;;;;24.52;15.63;;;;;;;0.28;68.49;102419.88;5020307;28;20040;-66
2022/03/10 03:43:21;;;;;;;25.10;15.55;;;;;;;0.28;68.34;102427.69;5019852;28;20271;-67
2022/03/10 03:45:46;;;;;;;26.20;15.82;;;;;;;0.27;68.70;102428.50;5019081;28;20049;-66
2022/03/10 03:48:12;;;;;;;25.15;15.57;;;;;;;0.28;68.74;102429.41;5018066;28;20558;-67
2022/03/10 03:50:37;;;;;;;27.48;16.80;;;;;;;0.27;68.95;102423.28;5020591;28;20373;-67
2022/03/10 03:53:03;;;;;;;25.40;15.65;;;;;;;0.26;68.87;102424.16;5017070;28;20022;-68
2022/03/10 03:55:29;;;;;;;24.25;14.80;;;;;;;0.26;68.69;102427.66;5018977;28;20082;-67
2022/03/10 03:57:55;;;;;;;24.35;15.10;;;;;;;0.27;68.78;102428.50;5019728;28;20427;-67
2022/03/10 04:00:20;;;;;;;27.58;16.27;;;;;;;0.26;68.95;102425.03;5020405;28;20086;-67
2022/03/10 04:02:46;;;;;;;25.67;16.52;;;;;;;0.26;68.78;102431.97;5018041;28;20079;-66
2022/03/10 04:05:12;;;;;;;24.30;15.98;;;;;;;0.24;68.89;102424.13;5019570;28;20033;-67
2022/03/10 04:07:38;;;;;;;23.00;15.40;;;;;;;0.24;68.87;102433.66;5020743;28;20048;-67
2022/03/10 04:10:05;;;;;;;24.98;15.55;;;;;;;0.24;68.59;102433.66;5009151;28;20511;-67
2022/03/10 04:12:31;;;;;;;24.95;15.57;;;;;;;0.23;68.71;102437.13;5018351;28;20493;-67
2022/03/10 04:14:56;;;;;;;25.33;15.32;;;;;;;0.23;68.93;102432.78;5018412;28;20040;-67
2022/03/10 04:17:22;;;;;;;25.00;15.88;;;;;;;0.23;69.14;102439.72;5020223;28;20244;-67
2022/03/10 04:19:48;;;;;;;28.98;16.38;;;;;;;0.22;68.58;102441.44;5019202;28;20076;-67
2022/03/10 04:22:14;;;;;;;28.77;16.65;;;;;;;0.21;68.82;102441.41;5020553;28;20448;-68
2022/03/10 04:24:39;;;;;;;26.40;16.33;;;;;;;0.21;68.80;102438.81;5019339;28;20041;-68
2022/03/10 04:27:05;;;;;;;25.38;15.65;;;;;;;0.19;68.51;102445.69;5019232;28;20048;-68
2022/03/10 04:29:30;;;;;;;25.70;15.95;;;;;;;0.19;68.62;102437.88;5019899;28;20504;-68
2022/03/10 04:31:56;;;;;;;24.70;15.80;;;;;;;0.19;69.02;102440.47;5019457;28;20159;-68
2022/03/10 04:34:21;;;;;;;24.33;15.80;;;;;;;0.18;68.58;102442.22;5019477;28;20128;-68
2022/03/10 04:36:47;;;;;;;24.30;16.38;;;;;;;0.18;68.58;102437.00;5019215;28;20041;-68
2022/03/10 04:39:13;;;;;;;26.77;16.90;;;;;;;0.18;68.97;102436.13;5018004;28;20021;-68
2022/03/10 04:41:39;;;;;;;26.00;15.57;;;;;;;0.17;68.83;102436.97;5019355;28;20063;-68
2022/03/10 04:44:04;;;;;;;27.95;17.48;;;;;;;0.16;68.84;102445.63;5020086;28;20072;-68
2022/03/10 04:46:30;;;;;;;27.60;17.27;;;;;;;0.15;69.06;102443.88;5016711;28;20052;-68
2022/03/10 04:48:55;;;;;;;25.15;15.75;;;;;;;0.15;68.96;102441.28;5018570;28;20107;-67
2022/03/10 04:51:21;;;;;;;30.15;17.45;;;;;;;0.13;69.15;102447.28;5019595;28;20138;-67
2022/03/10 04:53:46;;;;;;;29.48;18.25;;;;;;;0.13;69.14;102447.28;5017405;28;20048;-67
2022/03/10 04:56:12;;;;;;;25.42;16.10;;;;;;;0.12;68.89;102453.34;5019733;28;20037;-67
2022/03/10 04:58:38;;;;;;;29.15;17.08;;;;;;;0.12;69.34;102457.72;5017091;28;20033;-67
2022/03/10 05:01:03;;;;;;;29.90;16.25;;;;;;;0.12;69.23;102455.09;5018951;28;20431;-68
2022/03/10 05:03:31;;;;;;;28.73;16.50;;;;;;;0.11;69.20;102453.34;5016906;28;20048;-68
2022/03/10 05:05:56;;;;;;;29.33;17.20;;;;;;;0.10;69.53;102465.47;5016523;28;20064;-68
2022/03/10 05:08:22;;;;;;;26.40;16.95;;;;;;;0.09;69.13;102460.22;5017406;28;20448;-68
2022/03/10 05:10:47;;;;;;;26.23;16.88;;;;;;;0.09;69.35;102460.22;5019579;28;20116;-68
2022/03/10 05:13:13;;;;;;;27.45;16.95;;;;;;;0.08;69.51;102459.34;5017563;28;20037;-68
2022/03/10 05:15:39;;;;;;;27.15;17.25;;;;;;;0.07;69.65;102461.91;5017702;28;20029;-68
2022/03/10 05:18:05;;;;;;;30.02;17.58;;;;;;;0.05;69.34;102451.44;5017112;28;20029;-67
2022/03/10 05:20:31;;;;;;;30.58;18.55;;;;;;;0.05;69.31;102453.19;5018593;28;20029;-67
2022/03/10 05:22:59;;;;;;;27.88;17.35;;;;;;;0.04;69.33;102452.31;5032192;28;20505;-67
2022/03/10 05:25:37;;;;;;;28.17;17.10;;;;;;;0.04;69.47;102449.69;5019141;28;20384;-67
2022/03/10 05:28:04;;;;;;;28.67;16.92;;;;;;;0.03;69.44;102447.94;5018263;28;20029;-67
2022/03/10 05:30:30;;;;;;;25.85;16.65;;;;;;;0.02;69.80;102448.78;5016191;28;20033;-67
2022/03/10 05:32:55;;;;;;;29.38;17.50;;;;;;;0.01;69.73;102447.03;5018210;28;20032;-67
2022/03/10 05:35:22;;;;;;;28.13;18.10;;;;;;;0.01;69.56;102457.44;5017165;28;20050;-67
2022/03/10 05:37:48;;;;;;;28.33;16.75;;;;;;;-0.01;69.76;102460.00;5017198;28;20114;-67
2022/03/10 05:40:18;;;;;;;29.75;17.42;;;;;;;-0.01;69.44;102461.72;5016908;28;20703;-68
2022/03/10 05:42:45;;;;;;;29.88;17.13;;;;;;;0.00;69.62;102466.09;5018892;28;20025;-67
2022/03/10 05:45:11;;;;;;;28.48;17.00;;;;;;;-0.01;69.65;102464.31;5019704;28;20037;-68
2022/03/10 05:47:38;;;;;;;29.73;16.90;;;;;;;0.00;70.03;102466.09;5016401;28;20045;-67
2022/03/10 05:50:05;;;;;;;26.20;17.13;;;;;;;-0.02;69.94;102458.25;5018931;28;20034;-68
2022/03/10 05:52:31;;;;;;;32.90;18.55;;;;;;;-0.03;69.95;102458.19;5013060;28;20027;-68
2022/03/10 05:54:57;;;;;;;30.63;18.23;;;;;;;-0.03;69.93;102455.59;5016982;28;20056;-68
2022/03/10 05:57:23;;;;;;;28.20;17.90;;;;;;;-0.05;69.78;102458.16;5018367;28;20040;-68
2022/03/10 05:59:49;;;;;;;27.52;17.67;;;;;;;-0.07;69.96;102459.84;5017063;28;20064;-68
2022/03/10 06:02:18;;;;;;;27.30;16.67;;;;;;;-0.08;70.11;102450.28;5018208;28;20094;-68
2022/03/10 06:04:44;;;;;;;27.60;17.67;;;;;;;-0.10;69.86;102459.78;5015195;28;20074;-69
2022/03/10 06:07:10;;;;;;;28.45;18.23;;;;;;;-0.11;70.04;102470.16;5003757;28;20029;-67
2022/03/10 06:09:35;;;;;;;30.77;18.30;;;;;;;-0.11;70.00;102462.34;5016545;28;20039;-67
2022/03/10 06:12:01;;;;;;;27.30;17.27;;;;;;;-0.11;69.90;102468.41;4999511;28;20044;-68
2022/03/10 06:14:27;;;;;;;30.15;18.42;;;;;;;-0.11;69.89;102467.56;5018612;28;20128;-68
2022/03/10 06:16:52;;;;;;;29.42;17.70;;;;;;;-0.10;70.12;102471.91;5016013;28;20156;-68
2022/03/10 06:19:18;;;;;;;26.20;17.27;;;;;;;-0.10;70.19;102470.22;5014980;28;20300;-68
2022/03/10 06:21:44;;;;;;;32.42;18.33;;;;;;;-0.10;70.04;102471.91;5018843;28;20437;-68
2022/03/10 06:24:10;;;;;;;27.90;17.20;;;;;;;-0.09;70.07;102473.66;4999615;28;20037;-68
2022/03/10 06:26:38;;;;;;;31.50;17.55;;;;;;;-0.07;70.38;102472.88;5016803;28;20116;-68
2022/03/10 06:29:04;;;;;;;27.08;17.08;;;;;;;-0.07;70.21;102475.47;5016740;28;20029;-68
2022/03/10 06:31:30;;;;;;;28.00;18.08;;;;;;;-0.04;70.45;102474.69;5000930;28;20025;-68
2022/03/10 06:33:57;;;;;;;30.27;18.65;;;;;;;-0.04;70.10;102470.31;5005983;28;20131;-68
2022/03/10 06:36:23;;;;;;;28.48;18.25;;;;;;;-0.03;70.13;102477.31;5017838;28;20556;-69
2022/03/10 06:38:49;;;;;;;30.90;16.80;;;;;;;-0.02;70.57;102476.47;5016528;28;20113;-68
2022/03/10 06:41:14;;;;;;;29.67;17.25;;;;;;;-0.01;70.44;102478.25;5018197;28;20037;-68
2022/03/10 06:43:40;;;;;;;29.95;18.15;;;;;;;0.01;70.82;102485.19;5015573;28;20032;-69
2022/03/10 06:46:05;;;;;;;33.40;19.23;;;;;;;0.01;70.50;102493.91;5017818;28;20055;-69
2022/03/10 06:48:31;;;;;;;30.33;18.50;;;;;;;0.03;70.26;102476.59;5015520;28;20757;-68
2022/03/10 06:50:56;;;;;;;29.05;18.05;;;;;;;0.05;70.38;102495.72;5014909;28;20032;-68
2022/03/10 06:53:22;;;;;;;29.80;17.80;;;;;;;0.06;70.61;102491.41;5014805;28;20040;-68
2022/03/10 06:55:47;;;;;;;29.20;18.17;;;;;;;0.09;70.39;102492.38;5015190;28;20029;-70
2022/03/10 06:58:13;;;;;;;30.52;18.48;;;;;;;0.12;70.23;102500.25;5017045;28;20040;-70
2022/03/10 07:00:38;;;;;;;31.20;18.63;;;;;;;0.15;70.28;102494.22;5016385;28;20395;-70
2022/03/10 07:03:04;;;;;;;32.15;17.40;;;;;;;0.21;70.40;102498.72;5015571;28;20052;-69
2022/03/10 07:05:29;;;;;;;28.98;18.27;;;;;;;0.22;70.30;102506.56;5016465;28;21093;-69
2022/03/10 07:07:55;;;;;;;28.27;17.67;;;;;;;0.25;70.33;102500.56;5015708;28;20763;-69
2022/03/10 07:10:21;;;;;;;27.98;17.50;;;;;;;0.29;70.42;102505.00;5017618;28;20025;-69
2022/03/10 07:12:47;;;;;;;28.65;17.30;;;;;;;0.31;70.73;102503.31;5020883;28;20443;-69
2022/03/10 07:15:14;;;;;;;27.10;17.63;;;;;;;0.36;70.51;102501.69;5016537;28;20032;-70
2022/03/10 07:17:40;;;;;;;29.60;17.98;;;;;;;0.41;71.00;102493.97;5017029;28;20423;-70
2022/03/10 07:20:07;;;;;;;30.90;17.52;;;;;;;0.46;70.71;102500.19;5018000;28;20033;-68
2022/03/10 07:22:33;;;;;;;31.50;18.17;;;;;;;0.49;70.72;102492.44;5017795;28;20034;-67
2022/03/10 07:24:59;;;;;;;28.80;17.58;;;;;;;0.55;70.54;102494.31;5016326;28;20396;-69
2022/03/10 07:27:24;;;;;;;29.92;17.40;;;;;;;0.59;71.06;102493.53;5015010;28;20040;-68
2022/03/10 07:29:50;;;;;;;28.90;17.58;;;;;;;0.63;70.69;102492.75;5016074;28;20435;-69
2022/03/10 07:32:15;;;;;;;27.58;17.33;;;;;;;0.69;70.70;102494.59;5001277;28;20113;-69
2022/03/10 07:34:41;;;;;;;31.38;18.10;;;;;;;0.72;70.76;102494.69;5018150;28;20025;-70
2022/03/10 07:37:07;;;;;;;30.42;17.92;;;;;;;0.79;70.99;102495.69;5017533;28;20071;-69
2022/03/10 07:39:32;;;;;;;27.85;17.92;;;;;;;0.84;70.57;102499.28;5015862;28;20037;-68
2022/03/10 07:41:58;;;;;;;27.95;17.77;;;;;;;0.89;70.84;102496.78;5015734;28;20039;-68
2022/03/10 07:44:25;;;;;;;24.88;17.00;;;;;;;0.94;71.02;102495.16;5018227;28;20454;-69
2022/03/10 07:46:50;;;;;;;31.85;17.13;;;;;;;1.00;70.88;102497.91;5016098;28;20053;-69
2022/03/10 07:49:17;;;;;;;29.10;18.80;;;;;;;1.06;71.13;102497.13;5017551;28;20467;-70
2022/03/10 07:51:44;;;;;;;30.70;19.30;;;;;;;1.13;71.14;102496.41;5014654;28;20342;-70
2022/03/10 07:54:10;;;;;;;34.67;18.63;;;;;;;1.18;71.14;102500.00;5017433;28;20040;-70
2022/03/10 07:56:36;;;;;;;31.33;18.33;;;;;;;1.28;71.21;102500.19;5001950;28;20040;-70
2022/03/10 07:59:01;;;;;;;26.95;17.20;;;;;;;1.34;71.00;102500.31;5017979;28;20352;-71
2022/03/10 08:01:27;;;;;;;28.67;18.17;;;;;;;1.41;71.09;102496.09;5017898;28;20065;-68
2022/03/10 08:03:53;;;;;;;29.25;18.77;;;;;;;1.49;71.17;102505.81;5016912;28;20154;-69
2022/03/10 08:06:18;;;;;;;30.95;18.80;;;;;;;1.56;71.42;102496.38;5017742;28;20109;-68
2022/03/10 08:08:44;;;;;;;27.23;18.15;;;;;;;1.65;71.22;102494.78;5016272;28;20535;-69
2022/03/10 08:11:10;;;;;;;30.38;18.77;;;;;;;1.73;71.58;102495.78;5018167;28;20551;-69
2022/03/10 08:13:35;;;;;;;28.30;17.70;;;;;;;1.82;71.41;102500.31;5017761;28;20503;-69
2022/03/10 08:16:01;;;;;;;28.85;18.08;;;;;;;1.90;71.14;102496.09;5016968;28;20074;-69
2022/03/10 08:18:28;;;;;;;29.25;18.33;;;;;;;1.97;71.58;102492.72;5014897;28;20022;-70
2022/03/10 08:20:55;;;;;;;31.95;18.25;;;;;;;2.05;71.25;102500.72;5018172;28;20075;-70
2022/03/10 08:23:21;;;;;;;27.58;18.42;;;;;;;2.14;71.42;102492.16;5015440;28;20045;-70
2022/03/10 08:25:46;;;;;;;29.48;18.23;;;;;;;2.22;71.39;102490.53;5018389;28;20140;-70
2022/03/10 08:28:12;;;;;;;28.05;18.05;;;;;;;2.31;71.46;102482.81;5018133;28;20052;-70
2022/03/10 08:30:38;;;;;;;29.67;18.10;;;;;;;2.41;71.12;102483.84;5017604;28;20059;-71
2022/03/10 08:33:04;;;;;;;26.27;17.15;;;;;;;2.51;71.37;102482.25;5015827;28;20056;-71
2022/03/10 08:35:29;;;;;;;29.80;17.98;;;;;;;2.60;71.50;102484.13;5018726;28;20044;-70
2022/03/10 08:37:55;;;;;;;29.15;17.88;;;;;;;2.69;71.20;102478.16;5013614;28;20055;-71
2022/03/10 08:40:21;;;;;;;25.63;17.35;;;;;;;2.80;70.93;102478.28;5017226;28;20076;-70
2022/03/10 08:42:47;;;;;;;26.35;17.27;;;;;;;2.91;71.13;102474.09;5014572;28;20049;-71
2022/03/10 08:45:14;;;;;;;27.60;17.73;;;;;;;3.00;70.86;102473.31;5000107;28;20132;-71
2022/03/10 08:47:40;;;;;;;28.25;17.75;;;;;;;3.09;70.98;102478.66;5016638;28;20141;-71
2022/03/10 08:50:06;;;;;;;26.38;17.90;;;;;;;3.19;71.13;102468.28;5017804;28;20056;-71
2022/03/10 08:52:32;;;;;;;27.10;17.42;;;;;;;3.28;71.03;102475.38;5015778;28;20033;-71
2022/03/10 08:54:57;;;;;;;28.20;17.58;;;;;;;3.36;70.87;102472.00;5015012;28;20068;-71
2022/03/10 08:57:23;;;;;;;28.42;18.05;;;;;;;3.45;70.97;102470.31;5014401;28;20121;-70
2022/03/10 08:59:48;;;;;;;32.85;18.42;;;;;;;3.56;70.74;102468.69;5018290;28;20040;-72
2022/03/10 09:02:14;;;;;;;26.95;17.88;;;;;;;3.65;70.60;102467.91;5017095;28;20438;-70
2022/03/10 09:04:43;;;;;;;29.50;17.35;;;;;;;3.74;70.70;102468.00;5015666;28;20031;-71
2022/03/10 09:07:09;;;;;;;28.92;17.20;;;;;;;3.83;70.18;102464.59;4998023;28;20196;-71
2022/03/10 09:09:34;;;;;;;30.65;17.52;;;;;;;3.93;70.49;102463.78;5015088;28;20499;-71
2022/03/10 09:12:00;;;;;;;27.92;18.33;;;;;;;4.04;70.12;102465.63;5017928;28;20028;-72
2022/03/10 09:14:25;;;;;;;25.90;17.48;;;;;;;4.15;70.12;102458.72;4998597;28;20546;-71
2022/03/10 09:16:52;;;;;;;27.85;17.83;;;;;;;4.25;70.20;102454.41;5015007;28;20805;-71
2022/03/10 09:19:17;;;;;;;32.47;18.98;;;;;;;4.34;70.05;102459.72;5017758;28;20247;-71
2022/03/10 09:21:43;;;;;;;31.65;18.00;;;;;;;4.42;69.61;102454.53;5016970;28;20550;-71
2022/03/10 09:24:10;;;;;;;26.58;17.77;;;;;;;4.55;69.51;102451.97;5012934;28;20033;-71
2022/03/10 09:26:35;;;;;;;29.13;17.55;;;;;;;4.66;69.22;102454.66;5016885;28;20158;-71
2022/03/10 09:29:01;;;;;;;27.20;16.88;;;;;;;4.78;69.73;102459.09;5016431;28;20033;-69
2022/03/10 09:31:27;;;;;;;27.25;18.05;;;;;;;4.91;69.36;102454.78;5016829;28;20510;-71
2022/03/10 09:33:53;;;;;;;30.42;18.10;;;;;;;4.99;69.25;102451.31;5017281;28;20124;-69
2022/03/10 09:36:19;;;;;;;32.60;17.95;;;;;;;5.09;68.91;102451.34;5014462;28;20124;-70
2022/03/10 09:38:45;;;;;;;28.27;17.38;;;;;;;5.21;68.62;102454.00;5015113;28;20033;-69
2022/03/10 09:41:11;;;;;;;28.13;18.00;;;;;;;5.30;68.41;102446.16;5017378;28;20114;-70
2022/03/10 09:43:38;;;;;;;27.45;17.25;;;;;;;5.43;68.28;102443.53;5017453;28;20048;-69
2022/03/10 09:46:04;;;;;;;27.50;17.60;;;;;;;5.52;68.54;102443.59;5013652;28;20064;-71
2022/03/10 09:48:30;;;;;;;29.95;17.77;;;;;;;5.63;68.37;102445.34;5029102;28;20080;-71
2022/03/10 09:50:55;;;;;;;29.60;18.45;;;;;;;5.73;67.97;102433.97;5015902;28;20471;-70
2022/03/10 09:53:21;;;;;;;30.10;18.35;;;;;;;5.86;67.87;102432.19;5015657;28;20512;-70
2022/03/10 09:55:46;;;;;;;32.42;18.17;;;;;;;5.96;68.47;102433.97;5015798;28;21400;-70
2022/03/10 09:58:12;;;;;;;25.10;17.63;;;;;;;6.05;68.10;102430.47;5017377;28;20744;-69
2022/03/10 10:00:37;;;;;;;29.88;18.27;;;;;;;6.18;67.98;102433.97;5019069;28;20036;-69
2022/03/10 10:03:04;;;;;;;30.25;19.00;;;;;;;6.32;67.74;102438.31;5015960;28;20874;-68
2022/03/10 10:05:38;;;;;;;28.52;18.10;;;;;;;6.44;67.21;102430.41;5019108;28;20678;-69
2022/03/10 10:08:03;;;;;;;29.20;18.25;;;;;;;6.56;67.00;102429.50;5015825;28;20557;-68
2022/03/10 10:10:30;;;;;;;27.77;18.48;;;;;;;6.66;67.21;102436.47;5018027;28;20045;-68
2022/03/10 10:12:56;;;;;;;28.23;18.17;;;;;;;6.74;66.91;102433.81;5020882;28;20041;-68
2022/03/10 10:15:22;;;;;;;28.88;18.65;;;;;;;6.86;66.46;102432.03;5001336;28;20030;-68
2022/03/10 10:17:56;;;;;;;28.90;18.40;;;;;;;6.97;66.50;102430.19;5018985;28;20029;-68
2022/03/10 10:20:22;;;;;;;30.13;18.02;;;;;;;7.06;66.30;102431.91;5018772;28;20041;-68
2022/03/10 10:22:48;;;;;;;30.20;19.42;;;;;;;7.18;66.47;102430.97;5018502;28;20025;-68
2022/03/10 10:25:20;;;;;;;30.33;18.05;;;;;;;7.29;65.92;102425.63;5018627;28;20037;-68
2022/03/10 10:27:48;;;;;;;29.45;19.05;;;;;;;7.39;66.18;102418.53;5019085;28;20235;-69
2022/03/10 10:30:15;;;;;;;33.67;18.67;;;;;;;7.51;65.76;102425.50;5019667;28;20154;-68
2022/03/10 10:32:43;;;;;;;33.08;18.50;;;;;;;7.62;65.37;102428.91;5019285;28;20037;-68
2022/03/10 10:35:23;;;;;;;27.85;18.38;;;;;;;7.75;65.62;102422.66;5019540;28;20093;-68
2022/03/10 10:37:51;;;;;;;29.25;18.67;;;;;;;7.87;64.64;102421.69;5000348;28;20041;-68
2022/03/10 10:40:27;;;;;;;30.67;18.70;;;;;;;8.00;63.94;102417.19;5003980;28;20064;-67
2022/03/10 10:42:53;;;;;;;31.17;19.58;;;;;;;8.11;64.26;102413.53;5011362;28;20497;-70
2022/03/10 10:45:36;;;;;;;30.73;19.35;;;;;;;8.21;63.90;102411.69;5016822;28;20049;-70
2022/03/10 10:48:06;;;;;;;;;;;;;;;8.31;63.28;102409.81;5020239;28;20045;-69
2022/03/10 10:50:33;;;;;;;32.53;19.63;;;;;;;8.37;63.56;102402.72;5021476;28;19932;-70
2022/03/10 10:52:58;;;;;;;32.28;19.48;;;;;;;8.43;63.20;102396.50;5021077;28;20333;-68
2022/03/10 10:55:35;;;;;;;32.58;19.45;;;;;;;8.51;62.75;102399.94;5018573;28;20036;-69
2022/03/10 10:58:08;;;;;;;31.58;18.83;;;;;;;8.60;62.29;102401.63;5037487;28;20558;-69
2022/03/10 11:00:47;;;;;;;32.25;19.08;;;;;;;8.72;62.06;102403.22;5021155;28;20439;-68
2022/03/10 11:03:31;;;;;;;29.48;18.73;;;;;;;8.80;62.27;102390.81;5022170;28;20121;-68
2022/03/10 11:05:58;;;;;;;33.50;19.90;;;;;;;8.90;62.02;102390.69;5022840;28;20118;-67
2022/03/10 11:08:25;;;;;;;30.00;19.35;;;;;;;8.99;61.30;102395.81;5000572;28;20033;-67
2022/03/10 11:10:52;;;;;;;30.38;18.58;;;;;;;9.08;61.07;102392.19;5020451;28;20130;-67
2022/03/10 11:13:18;;;;;;;30.08;19.35;;;;;;;9.17;61.50;102394.72;5035474;28;20076;-68
2022/03/10 11:15:45;;;;;;;29.08;18.83;;;;;;;9.25;62.01;102394.56;5018699;28;20443;-67
2022/03/10 11:18:12;;;;;;;32.35;19.65;;;;;;;9.35;61.19;102390.91;5003263;28;20036;-67